Time;durP1;ratioP1;P1;durP2;ratioP2;P2;SDS_P1;SDS_P2;PMS_P1;PMS_P2;Temp;Humidity;BMP_temperature;BMP_pressure;BME280_temperature;BME280_humidity;BME280_pressure;Samples;Min_cycle;Max_cycle;Signal;HPM_P1;HPM_P2
2021/10/28 00:14:05;;;;;;;25.48;9.85;;;;;;;1.60;72.52;94408.28;5112074;28;20451;-39
2021/10/28 00:16:33;;;;;;;34.58;13.75;;;;;;;1.66;71.41;94412.59;5111970;28;20027;-39
2021/10/28 00:19:03;;;;;;;36.42;12.45;;;;;;;1.70;72.08;94410.44;5111071;28;20024;-40
2021/10/28 00:21:36;;;;;;;67.57;15.10;;;;;;;1.56;71.41;94375.78;5111886;28;20027;-40
2021/10/28 00:24:05;;;;;;;35.70;13.77;;;;;;;1.70;72.04;94409.69;5110512;28;20027;-40
2021/10/28 00:26:33;;;;;;;35.80;14.38;;;;;;;1.66;72.08;94403.69;5111267;28;20453;-40
2021/10/28 00:29:04;;;;;;;85.32;16.65;;;;;;;1.36;74.13;94394.72;5111805;28;20055;-39
2021/10/28 00:31:32;;;;;;;66.90;15.02;;;;;;;1.49;74.50;94393.22;5111389;28;20026;-40
2021/10/28 00:33:58;;;;;;;132.35;18.65;;;;;;;1.54;74.22;94394.56;5111364;28;20484;-40
2021/10/28 00:36:24;;;;;;;65.30;19.40;;;;;;;1.73;74.14;94403.31;5111601;28;20023;-39
2021/10/28 00:38:50;;;;;;;54.25;16.75;;;;;;;1.55;73.92;94404.22;5111647;28;20019;-39
2021/10/28 00:41:19;;;;;;;37.78;14.68;;;;;;;1.40;74.54;94406.19;5111234;28;20089;-40
2021/10/28 00:43:49;;;;;;;60.07;15.50;;;;;;;1.34;73.44;94408.06;5111120;28;20023;-39
2021/10/28 00:46:17;;;;;;;39.55;13.35;;;;;;;1.30;73.75;94396.59;5111425;28;20429;-40
2021/10/28 00:48:45;;;;;;;44.00;14.18;;;;;;;0.99;73.27;94394.25;5111215;28;20024;-43
2021/10/28 00:51:11;;;;;;;39.88;12.23;;;;;;;1.12;72.96;94397.50;5111360;28;20033;-43
2021/10/28 00:53:37;;;;;;;26.33;12.43;;;;;;;1.00;72.82;94376.72;5111086;28;20492;-43
2021/10/28 00:56:05;;;;;;;22.30;10.40;;;;;;;1.24;71.97;94391.03;5111088;28;20028;-41
2021/10/28 00:58:32;;;;;;;22.02;11.73;;;;;;;1.19;71.66;94380.78;5111141;28;20131;-42
2021/10/28 01:00:59;;;;;;;19.80;12.20;;;;;;;1.24;71.64;94377.44;5111269;28;20020;-41
2021/10/28 01:03:24;;;;;;;52.00;12.77;;;;;;;1.27;71.70;94371.06;5110845;28;20458;-41
2021/10/28 01:05:50;;;;;;;38.78;12.20;;;;;;;1.20;72.79;94381.56;5110900;28;20023;-41
2021/10/28 01:08:16;;;;;;;47.13;15.35;;;;;;;0.99;73.79;94380.66;5109587;28;20080;-41
2021/10/28 01:10:44;;;;;;;52.97;15.15;;;;;;;1.19;73.63;94380.78;5110960;28;20028;-42
2021/10/28 01:13:10;;;;;;;35.53;13.02;;;;;;;1.12;73.28;94385.84;5110854;28;20488;-42
2021/10/28 01:15:35;;;;;;;36.60;14.88;;;;;;;1.14;73.32;94384.19;5110963;28;20105;-41
2021/10/28 01:18:01;;;;;;;23.30;14.80;;;;;;;1.26;72.14;94368.81;5110685;28;20016;-41
2021/10/28 01:20:27;;;;;;;25.25;12.60;;;;;;;1.21;71.64;94378.34;5109218;28;20048;-41
2021/10/28 01:22:52;;;;;;;24.30;13.65;;;;;;;1.17;72.95;94374.34;5110679;28;20737;-41
2021/10/28 01:25:17;;;;;;;28.67;14.05;;;;;;;1.27;72.57;94375.75;5110627;28;20023;-41
2021/10/28 01:27:43;;;;;;;32.78;13.60;;;;;;;1.12;72.68;94373.00;5110589;28;20031;-41
2021/10/28 01:30:08;;;;;;;36.75;14.95;;;;;;;0.89;73.45;94371.06;5102391;28;20024;-40
2021/10/28 01:32:35;;;;;;;29.17;14.30;;;;;;;0.78;73.90;94376.25;5098753;28;20085;-40
2021/10/28 01:35:01;;;;;;;30.73;13.85;;;;;;;0.64;73.08;94347.84;5090449;28;20060;-41
2021/10/28 01:37:26;;;;;;;22.30;12.93;;;;;;;0.76;72.21;94373.25;5090156;28;20062;-40
2021/10/28 01:39:52;;;;;;;29.88;12.57;;;;;;;0.76;72.24;94374.00;5090475;28;20035;-40
2021/10/28 01:42:17;;;;;;;19.55;12.40;;;;;;;0.65;72.33;94376.50;5090060;28;20107;-41
2021/10/28 01:44:43;;;;;;;22.58;12.20;;;;;;;0.68;72.20;94372.88;5090370;28;20032;-41
2021/10/28 01:47:14;;;;;;;16.35;10.40;;;;;;;0.62;71.98;94372.00;5090378;28;20378;-40
2021/10/28 01:49:39;;;;;;;17.33;8.65;;;;;;;0.54;72.39;94370.81;5091330;28;20020;-41
2021/10/28 01:52:05;;;;;;;17.80;9.60;;;;;;;0.70;71.95;94365.00;5090250;28;20386;-42
2021/10/28 01:54:31;;;;;;;18.10;9.52;;;;;;;0.54;72.36;94361.94;5090368;28;20054;-43
2021/10/28 01:56:57;;;;;;;19.58;10.20;;;;;;;0.50;71.99;94362.09;5090244;28;20051;-41
2021/10/28 01:59:22;;;;;;;18.27;11.02;;;;;;;0.44;71.97;94363.19;5090271;28;20481;-43
2021/10/28 02:01:47;;;;;;;24.73;13.27;;;;;;;0.43;72.58;94353.56;5090281;28;20020;-42
2021/10/28 02:04:13;;;;;;;32.92;13.10;;;;;;;0.32;73.10;94364.16;5105234;28;20031;-42
2021/10/28 02:06:39;;;;;;;27.30;12.88;;;;;;;0.34;73.55;94367.16;5110601;28;20028;-43
2021/10/28 02:09:05;;;;;;;32.53;15.57;;;;;;;0.39;73.32;94361.13;5111882;28;20089;-43
2021/10/28 02:11:30;;;;;;;27.95;14.68;;;;;;;0.31;73.90;94373.50;5114076;27;20027;-43
2021/10/28 02:13:58;;;;;;;36.78;14.27;;;;;;;0.31;74.29;94366.13;5114053;28;20024;-43
2021/10/28 02:16:31;;;;;;;31.05;15.88;;;;;;;0.42;73.37;94373.75;5113969;28;20024;-42
2021/10/28 02:18:57;;;;;;;48.83;18.63;;;;;;;0.37;73.43;94366.25;5113745;28;20027;-43
2021/10/28 02:21:22;;;;;;;28.52;14.25;;;;;;;0.21;73.67;94361.97;5114309;28;20530;-44
2021/10/28 02:23:48;;;;;;;29.80;12.77;;;;;;;0.13;72.97;94341.03;5114009;28;20020;-41
2021/10/28 02:26:14;;;;;;;31.73;10.35;;;;;;;0.19;73.29;94356.25;5113851;28;20556;-40
2021/10/28 02:28:39;;;;;;;17.58;9.55;;;;;;;0.17;72.95;94355.94;5113860;28;20023;-42
2021/10/28 02:31:05;;;;;;;18.98;11.23;;;;;;;0.10;73.04;94355.50;5113663;28;20020;-43
2021/10/28 02:33:30;;;;;;;17.80;10.90;;;;;;;0.05;73.06;94356.13;5113761;28;20028;-43
2021/10/28 02:35:55;;;;;;;20.50;11.85;;;;;;;0.10;73.08;94363.66;5113946;28;20023;-42
2021/10/28 02:38:21;;;;;;;26.77;13.95;;;;;;;0.18;72.80;94370.25;5113699;28;20027;-44
2021/10/28 02:40:46;;;;;;;47.83;27.98;;;;;;;0.21;72.35;94364.69;5113473;28;20031;-43
2021/10/28 02:43:12;;;;;;;34.83;21.00;;;;;;;0.24;72.39;94371.88;5112566;28;20026;-43
2021/10/28 02:45:37;;;;;;;20.55;10.88;;;;;;;0.12;72.81;94377.53;5113773;28;20036;-42
2021/10/28 02:48:03;;;;;;;19.40;9.82;;;;;;;0.06;72.77;94379.38;5113760;28;20413;-41
2021/10/28 02:50:29;;;;;;;17.95;9.75;;;;;;;0.17;72.18;94374.94;5113663;28;20035;-42
2021/10/28 02:52:54;;;;;;;39.28;10.50;;;;;;;0.14;72.60;94366.97;5113316;28;20020;-42
2021/10/28 02:55:20;;;;;;;20.38;10.80;;;;;;;0.22;72.36;94377.03;5113333;28;20051;-43
2021/10/28 02:57:46;;;;;;;23.02;10.77;;;;;;;0.28;72.64;94372.47;5113529;28;20016;-41
2021/10/28 03:00:12;;;;;;;18.40;10.07;;;;;;;0.08;73.32;94372.28;5113219;28;20458;-40
2021/10/28 03:02:38;;;;;;;27.00;11.30;;;;;;;-0.02;73.46;94373.50;5113206;28;20089;-41
2021/10/28 03:05:05;;;;;;;24.02;11.13;;;;;;;0.00;73.26;94377.25;5113405;28;20043;-41
2021/10/28 03:07:33;;;;;;;17.20;9.63;;;;;;;-0.07;73.74;94376.84;5113110;28;20069;-42
2021/10/28 03:09:58;;;;;;;24.17;11.80;;;;;;;-0.13;74.10;94384.13;5113234;28;20031;-42
2021/10/28 03:12:24;;;;;;;20.33;10.35;;;;;;;-0.07;73.21;94383.03;5112934;28;20027;-41
2021/10/28 03:14:53;;;;;;;14.63;9.52;;;;;;;-0.05;73.37;94385.28;5113156;28;20023;-42
2021/10/28 03:28:01;;;;;;;10.05;6.97;;;;;;;-0.28;72.43;94373.13;5092360;28;20413;-41
2021/10/28 03:30:27;;;;;;;11.90;8.38;;;;;;;-0.24;71.82;94375.69;5092062;28;20028;-41
2021/10/28 03:32:52;;;;;;;14.38;8.65;;;;;;;-0.17;71.59;94375.34;5092562;28;20118;-42
2021/10/28 03:35:18;;;;;;;13.20;8.93;;;;;;;-0.12;71.55;94377.47;5092400;28;20028;-41
2021/10/28 04:21:03;;;;;;;19.38;10.02;;;;;;;-0.17;73.41;94405.22;5111694;28;20058;-43
2021/10/28 04:29:03;;;;;;;24.77;9.90;;;;;;;-0.30;73.98;94408.13;5111594;28;20058;-40
2021/10/28 04:31:35;;;;;;;40.83;16.45;;;;;;;-0.39;74.36;94402.69;5109964;28;20089;-41
2021/10/28 04:34:04;;;;;;;35.03;15.82;;;;;;;-0.31;74.23;94409.34;5111827;28;20090;-41
2021/10/28 04:36:30;;;;;;;;;;;;;;;-0.46;73.90;94411.16;5112233;28;20055;-41
2021/10/28 04:39:00;;;;;;;17.40;10.20;;;;;;;-0.46;74.31;94411.16;5111636;28;19915;-43
2021/10/28 04:41:26;;;;;;;31.08;14.43;;;;;;;-0.42;73.95;94417.19;5111214;28;20019;-45
2021/10/28 04:43:52;;;;;;;34.45;19.80;;;;;;;-0.40;73.94;94416.72;5111305;28;20115;-44
2021/10/28 04:46:18;;;;;;;74.65;28.42;;;;;;;-0.40;73.64;94412.06;5111133;28;20023;-46
2021/10/28 04:48:43;;;;;;;76.00;33.28;;;;;;;-0.52;73.48;94410.25;5111129;28;20085;-44
2021/10/28 04:51:09;;;;;;;120.07;46.08;;;;;;;-0.67;74.09;94409.34;5111279;28;20055;-42
2021/10/28 04:53:35;;;;;;;106.35;43.67;;;;;;;-0.57;74.22;94405.44;5110886;28;20480;-42
2021/10/28 04:56:00;;;;;;;112.60;41.83;;;;;;;-0.49;74.03;94416.72;5111344;28;20114;-42
2021/10/28 04:58:26;;;;;;;41.97;20.08;;;;;;;-0.68;74.21;94420.66;5110864;28;20024;-42
2021/10/28 05:00:52;;;;;;;26.77;15.13;;;;;;;-0.77;74.38;94421.44;5110249;28;20027;-42
2021/10/28 05:03:17;;;;;;;31.15;13.18;;;;;;;-0.60;74.56;94419.91;5111201;28;20103;-41
2021/10/28 05:05:44;;;;;;;19.83;11.05;;;;;;;-0.60;73.82;94411.78;5110895;28;20411;-41
2021/10/28 05:08:09;;;;;;;16.55;9.50;;;;;;;-0.69;74.63;94411.78;5109678;28;20094;-42
2021/10/28 05:10:35;;;;;;;21.50;11.05;;;;;;;-0.71;74.64;94418.88;5111003;28;20110;-42
2021/10/28 05:13:00;;;;;;;26.10;9.25;;;;;;;-0.65;73.83;94417.06;5111123;28;20386;-41
2021/10/28 05:15:26;;;;;;;15.38;9.95;;;;;;;-0.76;74.71;94420.97;5111056;28;20389;-42
2021/10/28 05:17:51;;;;;;;21.30;10.20;;;;;;;-0.84;73.94;94421.72;5110743;28;20507;-42
2021/10/28 05:20:17;;;;;;;14.57;9.18;;;;;;;-0.79;73.84;94421.13;5110461;28;20509;-41
2021/10/28 05:22:42;;;;;;;13.70;8.10;;;;;;;-0.79;73.81;94426.53;5110721;28;20115;-44
2021/10/28 05:25:08;;;;;;;11.52;7.55;;;;;;;-0.88;74.15;94419.16;5110637;28;20064;-40
2021/10/28 05:27:34;;;;;;;11.52;7.72;;;;;;;-0.77;73.73;94435.75;5110972;28;20028;-40
2021/10/28 05:30:00;;;;;;;20.27;8.95;;;;;;;-0.67;74.09;94428.34;5110934;28;20594;-40
2021/10/28 05:32:25;;;;;;;33.05;10.10;;;;;;;-0.57;74.40;94438.00;5110823;28;20541;-40
2021/10/28 05:34:52;;;;;;;25.20;11.38;;;;;;;-0.45;74.46;94430.88;5110857;28;20020;-40
2021/10/28 05:37:18;;;;;;;61.40;10.27;;;;;;;-0.40;75.50;94439.19;5110743;28;20032;-41
2021/10/28 05:39:43;;;;;;;22.67;10.02;;;;;;;-0.36;75.21;94439.03;5110881;28;20504;-41
2021/10/28 05:42:09;;;;;;;38.00;11.65;;;;;;;-0.55;76.39;94434.81;5110757;28;20500;-42
2021/10/28 05:44:34;;;;;;;23.58;11.23;;;;;;;-0.37;75.36;94440.97;5114384;28;20480;-42
2021/10/28 05:47:00;;;;;;;86.55;28.05;;;;;;;-0.18;75.16;94447.16;5114898;28;20019;-41
2021/10/28 05:49:28;;;;;;;42.88;20.83;;;;;;;0.01;74.05;94445.88;5114876;28;20027;-41
2021/10/28 05:51:54;;;;;;;46.20;19.50;;;;;;;0.13;73.85;94449.63;5114846;28;20038;-44
2021/10/28 05:54:19;;;;;;;50.28;19.42;;;;;;;0.23;72.75;94454.59;5114822;28;20433;-44
2021/10/28 05:56:45;;;;;;;71.55;24.05;;;;;;;0.37;72.78;94445.75;5114807;28;20024;-41
2021/10/28 05:59:10;;;;;;;39.40;17.80;;;;;;;0.37;72.71;94450.47;5114722;28;20024;-41
2021/10/28 06:01:36;;;;;;;46.03;19.35;;;;;;;0.27;72.61;94435.41;5114599;28;20016;-42
2021/10/28 06:04:01;;;;;;;39.35;18.55;;;;;;;0.46;72.33;94444.97;5114700;28;20098;-43
2021/10/28 06:06:27;;;;;;;44.90;21.67;;;;;;;0.64;70.96;94448.38;5114495;28;20027;-41
2021/10/28 06:08:52;;;;;;;38.72;23.85;;;;;;;0.72;71.74;94454.22;5114620;28;20019;-42
2021/10/28 06:11:19;;;;;;;41.95;27.88;;;;;;;0.75;71.56;94448.63;5114353;28;20450;-42
2021/10/28 06:13:47;;;;;;;44.45;26.60;;;;;;;0.84;71.41;94447.81;5114129;28;20085;-43
2021/10/28 06:16:13;;;;;;;46.97;27.98;;;;;;;0.77;71.76;94454.34;5114110;28;20023;-44
2021/10/28 06:18:41;;;;;;;45.63;29.90;;;;;;;0.64;72.10;94444.91;5113690;28;20077;-43
2021/10/28 06:21:09;;;;;;;46.13;30.30;;;;;;;0.85;72.66;94449.31;5113849;27;20130;-44
2021/10/28 06:23:35;;;;;;;41.65;28.48;;;;;;;0.99;72.45;94450.59;5113036;28;20073;-38
2021/10/28 06:26:01;;;;;;;30.48;20.45;;;;;;;1.16;72.15;94455.19;5114211;28;20023;-43
2021/10/28 06:28:26;;;;;;;25.65;17.83;;;;;;;1.20;71.53;94449.56;5113790;28;20564;-41
2021/10/28 06:30:52;;;;;;;36.35;24.10;;;;;;;1.18;71.95;94457.41;5114027;28;20045;-39
2021/10/28 06:33:24;;;;;;;48.08;27.88;;;;;;;1.48;72.42;94454.34;5113541;28;20047;-42
2021/10/28 06:35:49;;;;;;;23.58;16.40;;;;;;;1.66;72.23;94453.44;5111096;28;20024;-43
2021/10/28 06:38:15;;;;;;;66.57;33.83;;;;;;;2.00;71.56;94452.81;5111335;28;20436;-41
2021/10/28 06:40:41;;;;;;;49.15;23.70;;;;;;;2.39;71.00;94456.19;5107742;28;20591;-40
2021/10/28 06:43:08;;;;;;;42.53;25.60;;;;;;;2.92;69.20;94456.72;5096734;28;20443;-42
2021/10/28 06:45:34;;;;;;;39.30;24.13;;;;;;;3.72;67.28;94453.28;5110462;27;20070;-41
2021/10/28 06:48:00;;;;;;;27.83;15.95;;;;;;;4.99;63.49;94450.13;5104880;27;20028;-42
2021/10/28 06:50:29;;;;;;;25.52;15.02;;;;;;;6.47;58.82;94445.72;5088303;28;20020;-39
2021/10/28 06:53:06;;;;;;;9.10;7.55;;;;;;;7.87;55.01;94442.16;5089951;28;20024;-41
2021/10/28 07:03:27;;;;;;;7.32;5.93;;;;;;;11.03;46.27;94450.66;5098400;28;20466;-40
2021/10/28 07:05:53;;;;;;;10.43;7.53;;;;;;;12.05;44.22;94442.25;5089419;28;20026;-40
2021/10/28 07:08:18;;;;;;;9.15;7.20;;;;;;;13.03;41.68;94437.03;5089537;28;20031;-41
2021/10/28 07:10:45;;;;;;;9.10;5.63;;;;;;;13.47;40.29;94433.16;5089610;28;20024;-40
2021/10/28 07:13:17;;;;;;;7.72;6.95;;;;;;;14.21;39.87;94436.91;5089222;28;20040;-41
2021/10/28 07:16:08;;;;;;;8.00;6.65;;;;;;;15.03;37.65;94438.47;5101033;28;20024;-40
2021/10/28 07:18:55;;;;;;;11.00;8.30;;;;;;;15.74;36.87;94440.16;5108680;28;20565;-41
2021/10/28 08:13:25;;;;;;;10.48;8.07;;;;;;;24.58;26.41;94419.25;5095536;28;20031;-41
2021/10/28 08:15:03;;;;;;;9.05;8.07;;;;;;;25.66;25.34;94404.09;5104968;28;20031;-44
2021/10/28 08:17:41;;;;;;;19.80;15.27;;;;;;;25.44;24.12;94411.38;5107766;28;20545;-42
2021/10/28 08:20:17;;;;;;;13.32;11.82;;;;;;;24.59;25.67;94403.78;5090071;28;20051;-44
2021/10/28 08:22:49;;;;;;;20.80;13.10;;;;;;;24.74;25.64;94406.09;5085628;28;20023;-43
2021/10/28 08:30:43;;;;;;;13.70;11.60;;;;;;;25.40;24.09;94394.88;5108189;28;20037;-41
2021/10/28 08:33:12;;;;;;;17.25;14.55;;;;;;;26.19;24.14;94393.44;5104260;28;20022;-43
2021/10/28 08:35:38;;;;;;;9.93;8.60;;;;;;;26.32;23.48;94392.69;5087572;28;20032;-42
2021/10/28 08:38:05;;;;;;;10.65;9.02;;;;;;;26.71;23.51;94387.56;5095487;28;20031;-43
2021/10/28 08:40:30;;;;;;;9.68;7.28;;;;;;;26.79;21.72;94390.09;5097969;27;20110;-42
2021/10/28 08:42:57;;;;;;;6.53;2.88;;;;;;;26.55;19.21;94392.41;5110235;28;20027;-42
2021/10/28 08:45:23;;;;;;;3.67;2.70;;;;;;;25.73;19.65;94391.00;5102273;28;20064;-44
2021/10/28 08:47:55;;;;;;;3.58;2.80;;;;;;;25.91;19.66;94398.34;5095181;28;20111;-44
2021/10/28 08:56:01;;;;;;;5.30;3.08;;;;;;;25.71;19.52;94393.72;5097113;28;20126;-43
2021/10/28 09:26:24;;;;;;;2.95;2.45;;;;;;;26.93;16.98;94385.09;5107435;28;20077;-45
2021/10/28 09:29:14;;;;;;;2.83;2.40;;;;;;;27.14;17.42;94386.81;5100074;28;20034;-47
2021/10/28 09:31:51;;;;;;;3.13;2.30;;;;;;;26.68;17.58;94388.81;5109522;28;20031;-43
2021/10/28 09:34:32;;;;;;;4.63;2.85;;;;;;;26.66;17.98;94379.50;5108727;28;20034;-43
2021/10/28 09:51:05;;;;;;;3.33;2.83;;;;;;;26.04;17.40;94368.56;5088770;28;20036;-45
2021/10/28 09:53:44;;;;;;;3.15;2.55;;;;;;;25.64;17.94;94353.09;5101519;28;20078;-45
2021/10/28 09:59:05;;;;;;;3.40;2.83;;;;;;;25.30;18.01;94354.03;5109193;28;20111;-43
2021/10/28 10:01:35;;;;;;;4.15;2.80;;;;;;;25.12;17.89;94356.59;5108973;28;20059;-48
2021/10/28 10:04:03;;;;;;;11.70;3.13;;;;;;;25.09;18.57;94351.47;5109138;28;20034;-46
2021/10/28 10:06:28;;;;;;;3.25;2.72;;;;;;;25.75;17.60;94346.56;5107747;28;20042;-42
2021/10/28 10:08:55;;;;;;;7.43;2.75;;;;;;;25.77;17.23;94345.94;5109477;28;20032;-44
2021/10/28 10:11:25;;;;;;;6.68;2.90;;;;;;;25.15;18.16;94346.91;5107664;28;20027;-48
2021/10/28 10:13:51;;;;;;;11.98;4.00;;;;;;;24.71;18.90;94322.56;5108109;28;20066;-45
2021/10/28 10:16:17;;;;;;;7.78;4.18;;;;;;;25.52;18.26;94327.72;5108688;28;20476;-44
2021/10/28 10:18:52;;;;;;;4.25;3.00;;;;;;;24.93;18.58;94325.19;5093444;28;20074;-45
2021/10/28 11:03:00;;;;;;;4.97;2.75;;;;;;;26.00;18.40;94303.28;5090650;28;20484;-44
2021/10/28 11:30:57;;;;;;;4.72;3.15;;;;;;;21.94;21.97;94249.41;5097030;28;20563;-44
2021/10/28 12:01:37;;;;;;;4.28;2.90;;;;;;;22.94;21.24;94255.75;5069903;28;20131;-43
2021/10/28 12:45:54;;;;;;;4.65;3.55;;;;;;;19.76;25.33;94223.13;5088774;28;20039;-43
2021/10/28 12:54:05;;;;;;;3.00;2.40;;;;;;;19.18;25.55;94225.16;5088204;28;20043;-42
2021/10/28 15:28:18;;;;;;;8.25;6.30;;;;;;;13.36;47.22;94244.81;5089859;28;20433;-43
2021/10/28 15:36:24;;;;;;;7.20;5.13;;;;;;;12.89;48.69;94247.88;5090267;28;20036;-42
2021/10/28 15:41:29;;;;;;;11.93;5.38;;;;;;;12.28;50.49;94239.66;5090281;28;20031;-42
2021/10/28 16:24:15;;;;;;;24.08;11.63;;;;;;;10.12;55.68;94274.41;5109282;28;20531;-42
2021/10/28 16:26:41;;;;;;;27.35;12.02;;;;;;;10.07;55.64;94264.91;5109124;28;20446;-43
2021/10/28 16:29:08;;;;;;;19.35;10.25;;;;;;;9.81;55.66;94257.28;5108989;28;20065;-42
2021/10/28 16:31:35;;;;;;;27.90;14.80;;;;;;;9.69;56.13;94269.75;5109518;28;20038;-42
2021/10/28 16:34:01;;;;;;;18.98;11.82;;;;;;;9.61;56.83;94270.88;5109005;28;20539;-43
2021/10/28 16:36:26;;;;;;;23.55;17.00;;;;;;;9.73;56.93;94261.19;5109067;28;20019;-42
2021/10/28 16:38:52;;;;;;;31.70;20.63;;;;;;;9.69;56.47;94244.94;5109386;28;20023;-43
2021/10/28 16:41:18;;;;;;;31.48;21.10;;;;;;;9.80;56.33;94266.09;5109445;28;20047;-43
2021/10/28 16:43:44;;;;;;;30.75;23.27;;;;;;;9.38;57.15;94270.44;5108791;28;20027;-43
2021/10/28 16:46:10;;;;;;;16.88;12.32;;;;;;;9.30;57.61;94277.81;5109089;27;20032;-42
2021/10/28 16:48:36;;;;;;;18.98;14.00;;;;;;;9.14;57.60;94264.97;5107928;28;20027;-44
2021/10/28 16:51:02;;;;;;;19.15;15.05;;;;;;;9.05;58.00;94285.38;5107665;28;20019;-43
2021/10/28 16:53:27;;;;;;;17.85;11.30;;;;;;;8.89;58.17;94277.31;5109394;28;20070;-42
2021/10/28 16:55:53;;;;;;;8.90;7.70;;;;;;;8.55;58.70;94278.91;5109105;28;20050;-41
2021/10/28 16:58:19;;;;;;;23.27;8.52;;;;;;;8.70;58.76;94277.25;5108645;28;20416;-41
2021/10/28 17:00:48;;;;;;;14.70;7.55;;;;;;;8.62;59.49;94290.09;5098868;28;20032;-41
2021/10/28 17:03:14;;;;;;;8.38;5.53;;;;;;;8.78;58.57;94289.19;5088297;28;20031;-42
2021/10/28 17:05:39;;;;;;;7.90;5.57;;;;;;;8.88;58.31;94282.06;5088431;28;20437;-41
2021/10/28 17:08:05;;;;;;;12.82;5.82;;;;;;;8.78;58.44;94289.19;5104154;28;20027;-43
2021/10/28 17:10:30;;;;;;;9.80;6.03;;;;;;;8.46;59.51;94296.50;5102280;28;20074;-41
2021/10/28 17:12:57;;;;;;;9.70;7.30;;;;;;;8.53;58.96;94304.22;5096106;28;20550;-44
2021/10/28 17:15:22;;;;;;;10.38;7.25;;;;;;;8.58;58.47;94303.41;5088123;28;20107;-43
2021/10/28 17:17:48;;;;;;;13.80;6.70;;;;;;;8.52;58.52;94299.19;5094294;28;20114;-42
2021/10/28 17:20:14;;;;;;;10.75;7.18;;;;;;;8.11;59.17;94293.78;5103073;28;20122;-42
2021/10/28 17:22:39;;;;;;;10.32;6.88;;;;;;;8.03;60.21;94301.09;5095671;28;20110;-40
2021/10/28 17:25:08;;;;;;;13.82;7.57;;;;;;;8.13;59.55;94302.25;5098223;28;20029;-41
2021/10/28 17:27:34;;;;;;;13.70;8.57;;;;;;;7.82;60.01;94294.50;5096042;28;20032;-41
2021/10/28 17:30:02;;;;;;;9.25;7.28;;;;;;;7.64;60.45;94301.38;5096565;28;20058;-42
2021/10/28 17:32:28;;;;;;;26.42;11.40;;;;;;;7.14;61.62;94309.88;5098206;28;20038;-40
2021/10/28 17:34:53;;;;;;;15.90;10.73;;;;;;;7.16;62.07;94301.88;5096322;28;20036;-41
2021/10/28 17:37:19;;;;;;;17.10;11.32;;;;;;;7.21;62.10;94303.09;5096697;28;20026;-42
2021/10/28 17:39:44;;;;;;;18.05;12.15;;;;;;;7.44;61.30;94302.47;5100156;28;20077;-42
2021/10/28 17:42:10;;;;;;;20.27;12.63;;;;;;;7.08;62.21;94300.16;5100439;28;20020;-44
2021/10/28 17:44:47;;;;;;;16.58;10.35;;;;;;;7.29;61.36;94293.81;5101171;27;20072;-43
2021/10/28 17:47:13;;;;;;;16.92;11.50;;;;;;;7.36;60.06;94289.78;5100202;28;20127;-42
2021/10/28 17:49:39;;;;;;;20.45;12.50;;;;;;;7.28;60.14;94294.31;5105772;28;20028;-43
2021/10/28 17:52:06;;;;;;;23.63;10.93;;;;;;;7.21;59.96;94270.88;5099322;28;20036;-42
2021/10/28 17:54:32;;;;;;;17.02;10.93;;;;;;;7.42;59.97;94296.75;5100117;28;20030;-43
2021/10/28 17:56:57;;;;;;;30.48;16.75;;;;;;;7.38;60.02;94303.75;5098640;28;20497;-42
2021/10/28 17:59:23;;;;;;;29.73;15.70;;;;;;;7.22;60.51;94297.09;5104236;28;20615;-43
2021/10/28 18:01:49;;;;;;;20.30;13.73;;;;;;;7.23;60.78;94306.84;5108814;28;20039;-39
2021/10/28 18:04:14;;;;;;;27.52;18.67;;;;;;;7.29;60.69;94304.06;5096522;28;20032;-42
2021/10/28 18:06:40;;;;;;;31.10;19.33;;;;;;;7.25;61.06;94301.59;5091807;28;20054;-41
2021/10/28 18:09:06;;;;;;;41.47;19.77;;;;;;;7.26;61.07;94305.06;5091668;28;20020;-41
2021/10/28 18:11:32;;;;;;;34.28;21.60;;;;;;;7.14;61.31;94303.63;5091379;28;20032;-41
2021/10/28 18:13:59;;;;;;;40.58;25.35;;;;;;;6.77;62.19;94312.22;5102922;28;20032;-41
2021/10/28 18:16:26;;;;;;;38.83;24.33;;;;;;;6.80;62.40;94306.47;5091153;28;20646;-41
2021/10/28 18:18:57;;;;;;;35.95;23.20;;;;;;;6.35;62.58;94266.66;5109254;28;20032;-44
2021/10/28 18:21:23;;;;;;;29.73;21.05;;;;;;;6.82;62.04;94312.19;5112029;28;20513;-42
2021/10/28 18:23:50;;;;;;;32.35;21.20;;;;;;;6.74;62.16;94315.97;5112279;28;20051;-42
2021/10/28 18:26:20;;;;;;;33.03;17.45;;;;;;;6.47;61.56;94317.53;5111764;28;20031;-43
2021/10/28 18:28:47;;;;;;;28.02;18.20;;;;;;;6.51;60.90;94314.53;5110029;28;20028;-42
2021/10/28 18:31:12;;;;;;;35.38;20.67;;;;;;;6.66;61.29;94307.53;5105824;28;20024;-42
2021/10/28 18:33:39;;;;;;;30.35;18.35;;;;;;;6.16;62.18;94317.03;5091218;28;20030;-42
2021/10/28 18:36:06;;;;;;;29.83;17.50;;;;;;;6.24;62.52;94294.09;5091285;28;20032;-42
2021/10/28 18:38:32;;;;;;;29.33;18.60;;;;;;;6.37;61.75;94310.03;5090934;28;20470;-43
2021/10/28 18:40:59;;;;;;;25.15;16.98;;;;;;;6.16;63.00;94323.28;5090863;28;20062;-42
2021/10/28 18:43:25;;;;;;;32.45;21.67;;;;;;;6.23;63.05;94324.78;5091077;28;20032;-42
2021/10/28 18:45:51;;;;;;;35.42;22.92;;;;;;;6.25;63.33;94325.03;5090805;28;20023;-42
2021/10/28 18:48:16;;;;;;;54.80;34.60;;;;;;;6.23;63.49;94322.78;5091003;28;20039;-43
2021/10/28 18:50:42;;;;;;;45.25;30.27;;;;;;;6.22;63.39;94326.00;5088880;28;20099;-43
2021/10/28 18:53:08;;;;;;;50.35;30.17;;;;;;;6.25;63.81;94325.03;5089504;28;20032;-42
2021/10/28 18:55:36;;;;;;;33.22;21.65;;;;;;;6.01;63.38;94323.53;5093504;28;20031;-44
2021/10/28 18:58:01;;;;;;;38.15;26.00;;;;;;;5.85;63.90;94324.25;5105883;28;20189;-43
2021/10/28 19:00:27;;;;;;;42.78;27.45;;;;;;;5.66;65.19;94323.22;5099626;28;20099;-43
2021/10/28 19:02:52;;;;;;;41.50;27.33;;;;;;;5.51;65.21;94332.88;5101400;27;20680;-45
2021/10/28 19:05:20;;;;;;;40.45;27.95;;;;;;;5.52;66.37;94323.44;5108028;28;20080;-42
2021/10/28 19:07:46;;;;;;;47.72;27.30;;;;;;;5.79;64.83;94323.47;5110757;28;20103;-43
2021/10/28 19:10:12;;;;;;;41.05;24.95;;;;;;;5.68;64.21;94328.94;5111018;28;20023;-41
2021/10/28 19:12:38;;;;;;;38.58;24.20;;;;;;;5.78;64.25;94337.69;5110650;28;20485;-43
2021/10/28 19:15:04;;;;;;;36.17;25.38;;;;;;;5.78;64.25;94321.97;5110760;28;20055;-41
2021/10/28 19:17:30;;;;;;;44.10;28.92;;;;;;;5.64;64.53;94322.22;5110907;28;20031;-42
2021/10/28 19:19:56;;;;;;;43.42;26.23;;;;;;;5.70;64.21;94328.44;5101175;28;20609;-45
2021/10/28 19:22:25;;;;;;;39.13;26.08;;;;;;;5.55;64.22;94334.16;5093958;28;20478;-42
2021/10/28 19:24:51;;;;;;;30.38;22.08;;;;;;;5.50;64.22;94321.19;5102537;27;20569;-43
2021/10/28 19:27:16;;;;;;;32.78;21.77;;;;;;;5.62;63.69;94319.97;5102944;28;20027;-41
2021/10/28 19:29:47;;;;;;;36.35;22.90;;;;;;;5.61;63.58;94340.38;5112455;28;20030;-43
2021/10/28 19:32:20;;;;;;;43.22;28.00;;;;;;;5.07;65.41;94344.44;5112312;28;20030;-43
2021/10/28 19:34:45;;;;;;;46.97;28.77;;;;;;;5.12;65.09;94344.47;5112428;28;20028;-41
2021/10/28 19:37:19;;;;;;;53.10;31.50;;;;;;;5.35;65.15;94339.81;5112743;28;20034;-43
2021/10/28 19:47:42;;;;;;;30.20;20.25;;;;;;;4.90;65.13;94341.63;5112157;28;20119;-44
2021/10/28 19:50:11;;;;;;;31.15;22.17;;;;;;;4.83;65.48;94325.69;5112576;28;20476;-45
2021/10/28 19:52:37;;;;;;;;;;;;;;;4.71;65.53;94348.75;5112249;28;20020;-44
2021/10/28 19:55:04;;;;;;;27.92;16.77;;;;;;;4.69;64.29;94348.50;5111176;28;19915;-44
2021/10/28 19:57:33;;;;;;;20.90;11.32;;;;;;;4.69;64.06;94353.97;5091740;28;20036;-44
2021/10/28 20:21:32;;;;;;;24.75;14.27;;;;;;;4.19;65.58;94353.63;5111482;28;20042;-45
2021/10/28 20:23:58;;;;;;;27.63;16.15;;;;;;;4.54;65.35;94351.41;5111492;27;20023;-45
2021/10/28 20:26:24;;;;;;;28.90;18.00;;;;;;;4.47;64.98;94346.38;5111150;28;20292;-45
2021/10/28 20:28:52;;;;;;;30.27;18.02;;;;;;;4.33;65.46;94352.00;5111338;28;20052;-45
2021/10/28 20:31:19;;;;;;;36.58;21.65;;;;;;;4.29;65.23;94348.72;5111524;28;20058;-46
2021/10/28 20:34:03;;;;;;;27.48;16.73;;;;;;;4.26;65.57;94342.25;5111452;28;20061;-44
2021/10/28 20:38:59;;;;;;;26.33;18.00;;;;;;;4.10;65.92;94345.59;5111769;28;20023;-43
2021/10/28 20:41:26;;;;;;;24.40;15.73;;;;;;;3.73;66.95;94336.59;5111630;28;20028;-43
2021/10/28 20:43:52;;;;;;;39.40;22.48;;;;;;;3.99;66.16;94342.78;5111360;28;20038;-44
2021/10/28 20:46:22;;;;;;;84.68;49.03;;;;;;;3.98;65.75;94332.34;5111257;28;20016;-47
2021/10/28 20:48:48;;;;;;;93.97;55.85;;;;;;;3.85;65.56;94336.19;5111574;28;20023;-43